sensor_id;sensor_type;location;lat;lon;timestamp;P1;durP1;ratioP1;P2;durP2;ratioP2
8230;SDS011;4156;50.908;6.974;2023-03-01T00:01:28;7.07;;;5.20;;
8230;SDS011;4156;50.908;6.974;2023-03-01T00:03:54;7.57;;;5.30;;
8230;SDS011;4156;50.908;6.974;2023-03-01T00:06:21;7.00;;;4.77;;
8230;SDS011;4156;50.908;6.974;2023-03-01T00:08:47;6.03;;;4.77;;
8230;SDS011;4156;50.908;6.974;2023-03-01T00:13:45;7.17;;;4.77;;
8230;SDS011;4156;50.908;6.974;2023-03-01T00:16:16;9.30;;;5.37;;
8230;SDS011;4156;50.908;6.974;2023-03-01T00:18:43;9.57;;;5.63;;
8230;SDS011;4156;50.908;6.974;2023-03-01T00:21:09;8.53;;;5.77;;
8230;SDS011;4156;50.908;6.974;2023-03-01T00:23:35;8.57;;;5.20;;
8230;SDS011;4156;50.908;6.974;2023-03-01T00:26:01;8.40;;;6.13;;
8230;SDS011;4156;50.908;6.974;2023-03-01T00:28:31;8.43;;;5.50;;
8230;SDS011;4156;50.908;6.974;2023-03-01T00:30:58;6.83;;;4.80;;
8230;SDS011;4156;50.908;6.974;2023-03-01T00:33:31;7.20;;;5.23;;
8230;SDS011;4156;50.908;6.974;2023-03-01T00:35:59;8.87;;;5.33;;
8230;SDS011;4156;50.908;6.974;2023-03-01T00:38:25;10.13;;;5.83;;
8230;SDS011;4156;50.908;6.974;2023-03-01T00:40:51;8.03;;;5.37;;
8230;SDS011;4156;50.908;6.974;2023-03-01T00:43:16;6.90;;;4.53;;
8230;SDS011;4156;50.908;6.974;2023-03-01T00:45:42;7.47;;;5.10;;
8230;SDS011;4156;50.908;6.974;2023-03-01T00:48:08;7.50;;;5.13;;
8230;SDS011;4156;50.908;6.974;2023-03-01T00:50:33;9.07;;;4.77;;
8230;SDS011;4156;50.908;6.974;2023-03-01T00:52:59;6.37;;;4.93;;
8230;SDS011;4156;50.908;6.974;2023-03-01T00:55:24;7.30;;;4.73;;
8230;SDS011;4156;50.908;6.974;2023-03-01T00:57:51;6.37;;;5.00;;
8230;SDS011;4156;50.908;6.974;2023-03-01T01:00:16;8.73;;;5.10;;
8230;SDS011;4156;50.908;6.974;2023-03-01T01:02:43;8.40;;;5.07;;
8230;SDS011;4156;50.908;6.974;2023-03-01T01:05:09;6.93;;;4.77;;
8230;SDS011;4156;50.908;6.974;2023-03-01T01:07:35;7.10;;;4.90;;
8230;SDS011;4156;50.908;6.974;2023-03-01T01:10:00;8.10;;;4.93;;
8230;SDS011;4156;50.908;6.974;2023-03-01T01:12:26;7.20;;;5.23;;
8230;SDS011;4156;50.908;6.974;2023-03-01T01:14:51;7.43;;;4.67;;
8230;SDS011;4156;50.908;6.974;2023-03-01T01:17:17;7.50;;;4.87;;
8230;SDS011;4156;50.908;6.974;2023-03-01T01:19:42;6.50;;;4.70;;
8230;SDS011;4156;50.908;6.974;2023-03-01T01:22:08;6.23;;;4.70;;
8230;SDS011;4156;50.908;6.974;2023-03-01T01:24:34;6.03;;;4.77;;
8230;SDS011;4156;50.908;6.974;2023-03-01T01:27:01;9.10;;;5.20;;
8230;SDS011;4156;50.908;6.974;2023-03-01T01:29:26;7.43;;;5.00;;
8230;SDS011;4156;50.908;6.974;2023-03-01T01:31:52;5.57;;;4.70;;
8230;SDS011;4156;50.908;6.974;2023-03-01T01:34:18;6.93;;;4.40;;
8230;SDS011;4156;50.908;6.974;2023-03-01T01:36:49;7.20;;;5.17;;
8230;SDS011;4156;50.908;6.974;2023-03-01T01:39:16;8.43;;;5.03;;
8230;SDS011;4156;50.908;6.974;2023-03-01T01:41:41;7.20;;;4.67;;
8230;SDS011;4156;50.908;6.974;2023-03-01T01:44:12;7.53;;;4.27;;
8230;SDS011;4156;50.908;6.974;2023-03-01T01:46:51;11.70;;;4.73;;
8230;SDS011;4156;50.908;6.974;2023-03-01T01:54:38;8.80;;;4.47;;
8230;SDS011;4156;50.908;6.974;2023-03-01T01:57:29;6.77;;;4.50;;
8230;SDS011;4156;50.908;6.974;2023-03-01T02:00:04;7.67;;;4.53;;
8230;SDS011;4156;50.908;6.974;2023-03-01T02:02:37;6.10;;;4.80;;
8230;SDS011;4156;50.908;6.974;2023-03-01T02:05:16;7.37;;;4.77;;
8230;SDS011;4156;50.908;6.974;2023-03-01T02:08:05;6.20;;;4.40;;
8230;SDS011;4156;50.908;6.974;2023-03-01T02:10:32;6.57;;;4.63;;
8230;SDS011;4156;50.908;6.974;2023-03-01T02:12:59;7.53;;;4.73;;
8230;SDS011;4156;50.908;6.974;2023-03-01T02:15:26;6.57;;;5.07;;
8230;SDS011;4156;50.908;6.974;2023-03-01T02:17:52;8.20;;;4.80;;
8230;SDS011;4156;50.908;6.974;2023-03-01T02:20:23;6.27;;;4.70;;
8230;SDS011;4156;50.908;6.974;2023-03-01T02:22:54;8.30;;;5.03;;
8230;SDS011;4156;50.908;6.974;2023-03-01T02:25:23;7.90;;;5.10;;
8230;SDS011;4156;50.908;6.974;2023-03-01T02:30:44;7.60;;;4.97;;
8230;SDS011;4156;50.908;6.974;2023-03-01T02:33:31;6.30;;;4.97;;
8230;SDS011;4156;50.908;6.974;2023-03-01T02:36:01;6.80;;;4.63;;
8230;SDS011;4156;50.908;6.974;2023-03-01T02:38:29;7.77;;;4.73;;
8230;SDS011;4156;50.908;6.974;2023-03-01T02:40:56;5.67;;;4.27;;
8230;SDS011;4156;50.908;6.974;2023-03-01T02:43:24;6.13;;;5.00;;
8230;SDS011;4156;50.908;6.974;2023-03-01T02:45:57;9.50;;;5.50;;
8230;SDS011;4156;50.908;6.974;2023-03-01T02:48:26;5.47;;;4.30;;
8230;SDS011;4156;50.908;6.974;2023-03-01T02:50:55;6.87;;;4.40;;
8230;SDS011;4156;50.908;6.974;2023-03-01T02:53:41;6.37;;;4.83;;
8230;SDS011;4156;50.908;6.974;2023-03-01T02:56:21;5.80;;;4.77;;
8230;SDS011;4156;50.908;6.974;2023-03-01T02:58:46;6.77;;;4.73;;
8230;SDS011;4156;50.908;6.974;2023-03-01T03:01:16;8.00;;;5.13;;
8230;SDS011;4156;50.908;6.974;2023-03-01T03:03:42;6.80;;;4.97;;
8230;SDS011;4156;50.908;6.974;2023-03-01T03:06:09;5.90;;;5.17;;
8230;SDS011;4156;50.908;6.974;2023-03-01T03:08:34;8.27;;;5.20;;
8230;SDS011;4156;50.908;6.974;2023-03-01T03:11:00;8.77;;;4.90;;
8230;SDS011;4156;50.908;6.974;2023-03-01T03:13:26;7.13;;;5.10;;
8230;SDS011;4156;50.908;6.974;2023-03-01T03:15:53;6.90;;;4.80;;
8230;SDS011;4156;50.908;6.974;2023-03-01T03:18:23;7.80;;;5.77;;
8230;SDS011;4156;50.908;6.974;2023-03-01T03:20:51;8.43;;;5.50;;
8230;SDS011;4156;50.908;6.974;2023-03-01T03:23:18;10.13;;;4.60;;
8230;SDS011;4156;50.908;6.974;2023-03-01T03:25:47;8.30;;;5.67;;
8230;SDS011;4156;50.908;6.974;2023-03-01T03:28:14;6.57;;;4.97;;
8230;SDS011;4156;50.908;6.974;2023-03-01T03:30:40;6.80;;;5.07;;
8230;SDS011;4156;50.908;6.974;2023-03-01T03:33:07;7.27;;;5.00;;
8230;SDS011;4156;50.908;6.974;2023-03-01T03:35:38;5.67;;;4.60;;
8230;SDS011;4156;50.908;6.974;2023-03-01T03:38:12;6.80;;;4.87;;
8230;SDS011;4156;50.908;6.974;2023-03-01T03:41:24;7.33;;;5.40;;
8230;SDS011;4156;50.908;6.974;2023-03-01T03:43:33;6.40;;;4.57;;
8230;SDS011;4156;50.908;6.974;2023-03-01T03:46:00;6.43;;;4.83;;
8230;SDS011;4156;50.908;6.974;2023-03-01T03:48:30;5.27;;;4.17;;
8230;SDS011;4156;50.908;6.974;2023-03-01T03:50:57;7.37;;;5.27;;
8230;SDS011;4156;50.908;6.974;2023-03-01T03:53:23;7.50;;;4.80;;
8230;SDS011;4156;50.908;6.974;2023-03-01T03:55:53;7.33;;;4.70;;
8230;SDS011;4156;50.908;6.974;2023-03-01T03:58:20;8.30;;;5.00;;
8230;SDS011;4156;50.908;6.974;2023-03-01T04:00:48;8.63;;;5.60;;
8230;SDS011;4156;50.908;6.974;2023-03-01T04:03:16;6.70;;;5.13;;
8230;SDS011;4156;50.908;6.974;2023-03-01T04:05:43;5.77;;;4.30;;
8230;SDS011;4156;50.908;6.974;2023-03-01T04:08:09;6.87;;;5.23;;
8230;SDS011;4156;50.908;6.974;2023-03-01T04:10:42;6.90;;;4.90;;
8230;SDS011;4156;50.908;6.974;2023-03-01T04:13:11;7.43;;;5.30;;
8230;SDS011;4156;50.908;6.974;2023-03-01T04:15:39;8.87;;;5.60;;
8230;SDS011;4156;50.908;6.974;2023-03-01T04:18:05;7.10;;;5.30;;
8230;SDS011;4156;50.908;6.974;2023-03-01T04:20:32;11.90;;;5.40;;
8230;SDS011;4156;50.908;6.974;2023-03-01T04:23:04;5.70;;;4.67;;
8230;SDS011;4156;50.908;6.974;2023-03-01T04:28:18;9.43;;;5.73;;
8230;SDS011;4156;50.908;6.974;2023-03-01T04:31:12;6.77;;;4.77;;
8230;SDS011;4156;50.908;6.974;2023-03-01T04:36:08;8.10;;;5.53;;
8230;SDS011;4156;50.908;6.974;2023-03-01T04:38:35;8.50;;;5.93;;
8230;SDS011;4156;50.908;6.974;2023-03-01T04:41:02;6.17;;;5.27;;
8230;SDS011;4156;50.908;6.974;2023-03-01T04:43:29;7.57;;;4.93;;
8230;SDS011;4156;50.908;6.974;2023-03-01T04:45:54;7.57;;;5.50;;
8230;SDS011;4156;50.908;6.974;2023-03-01T04:48:27;7.43;;;5.50;;
8230;SDS011;4156;50.908;6.974;2023-03-01T04:50:53;7.80;;;5.97;;
8230;SDS011;4156;50.908;6.974;2023-03-01T04:53:18;6.90;;;5.37;;
8230;SDS011;4156;50.908;6.974;2023-03-01T04:55:44;8.20;;;5.70;;
8230;SDS011;4156;50.908;6.974;2023-03-01T04:58:09;7.90;;;6.00;;
8230;SDS011;4156;50.908;6.974;2023-03-01T05:00:35;8.00;;;5.53;;
8230;SDS011;4156;50.908;6.974;2023-03-01T05:03:01;9.33;;;5.77;;
8230;SDS011;4156;50.908;6.974;2023-03-01T05:05:27;7.50;;;5.73;;
8230;SDS011;4156;50.908;6.974;2023-03-01T05:08:02;7.23;;;4.90;;
8230;SDS011;4156;50.908;6.974;2023-03-01T05:10:30;7.30;;;5.43;;
8230;SDS011;4156;50.908;6.974;2023-03-01T05:12:57;8.13;;;5.57;;
8230;SDS011;4156;50.908;6.974;2023-03-01T05:15:24;7.87;;;5.63;;
8230;SDS011;4156;50.908;6.974;2023-03-01T05:17:52;8.73;;;6.33;;
8230;SDS011;4156;50.908;6.974;2023-03-01T05:20:19;10.43;;;6.20;;
8230;SDS011;4156;50.908;6.974;2023-03-01T05:22:47;11.37;;;5.63;;
8230;SDS011;4156;50.908;6.974;2023-03-01T05:25:14;8.87;;;5.77;;
8230;SDS011;4156;50.908;6.974;2023-03-01T05:27:40;8.60;;;5.57;;
8230;SDS011;4156;50.908;6.974;2023-03-01T05:30:05;8.70;;;6.73;;
8230;SDS011;4156;50.908;6.974;2023-03-01T05:32:45;8.53;;;6.00;;
8230;SDS011;4156;50.908;6.974;2023-03-01T05:35:13;9.97;;;5.63;;
8230;SDS011;4156;50.908;6.974;2023-03-01T05:37:45;11.17;;;6.17;;
8230;SDS011;4156;50.908;6.974;2023-03-01T05:40:13;9.33;;;6.17;;
8230;SDS011;4156;50.908;6.974;2023-03-01T05:42:42;10.67;;;6.80;;
8230;SDS011;4156;50.908;6.974;2023-03-01T05:45:08;8.83;;;5.63;;
8230;SDS011;4156;50.908;6.974;2023-03-01T05:47:34;8.43;;;5.97;;
8230;SDS011;4156;50.908;6.974;2023-03-01T05:50:00;7.47;;;6.00;;
8230;SDS011;4156;50.908;6.974;2023-03-01T05:52:26;7.90;;;6.43;;
8230;SDS011;4156;50.908;6.974;2023-03-01T05:54:52;8.83;;;6.00;;
8230;SDS011;4156;50.908;6.974;2023-03-01T05:57:17;11.20;;;6.30;;
8230;SDS011;4156;50.908;6.974;2023-03-01T05:59:43;7.90;;;5.70;;
8230;SDS011;4156;50.908;6.974;2023-03-01T06:02:08;8.40;;;5.97;;
8230;SDS011;4156;50.908;6.974;2023-03-01T06:04:34;10.03;;;6.67;;
8230;SDS011;4156;50.908;6.974;2023-03-01T06:06:59;7.07;;;5.97;;
8230;SDS011;4156;50.908;6.974;2023-03-01T06:09:25;9.40;;;6.60;;
8230;SDS011;4156;50.908;6.974;2023-03-01T06:11:50;8.77;;;5.97;;
8230;SDS011;4156;50.908;6.974;2023-03-01T06:14:16;8.63;;;7.27;;
8230;SDS011;4156;50.908;6.974;2023-03-01T06:16:42;10.30;;;6.20;;
8230;SDS011;4156;50.908;6.974;2023-03-01T06:19:07;9.07;;;6.60;;
8230;SDS011;4156;50.908;6.974;2023-03-01T06:21:33;8.83;;;6.23;;
8230;SDS011;4156;50.908;6.974;2023-03-01T06:23:58;11.37;;;6.70;;
8230;SDS011;4156;50.908;6.974;2023-03-01T06:26:24;8.87;;;6.47;;
8230;SDS011;4156;50.908;6.974;2023-03-01T06:28:49;11.10;;;6.73;;
8230;SDS011;4156;50.908;6.974;2023-03-01T06:31:15;9.40;;;6.70;;
8230;SDS011;4156;50.908;6.974;2023-03-01T06:33:40;9.90;;;7.03;;
8230;SDS011;4156;50.908;6.974;2023-03-01T06:36:06;9.33;;;6.87;;
8230;SDS011;4156;50.908;6.974;2023-03-01T06:38:33;10.40;;;6.40;;
8230;SDS011;4156;50.908;6.974;2023-03-01T06:40:58;7.37;;;6.33;;
8230;SDS011;4156;50.908;6.974;2023-03-01T06:43:24;10.20;;;6.80;;
8230;SDS011;4156;50.908;6.974;2023-03-01T06:45:50;9.27;;;6.00;;
8230;SDS011;4156;50.908;6.974;2023-03-01T06:48:16;11.13;;;7.13;;
8230;SDS011;4156;50.908;6.974;2023-03-01T06:50:41;9.33;;;7.50;;
8230;SDS011;4156;50.908;6.974;2023-03-01T06:53:07;9.77;;;6.20;;
8230;SDS011;4156;50.908;6.974;2023-03-01T06:55:32;12.13;;;6.87;;
8230;SDS011;4156;50.908;6.974;2023-03-01T06:57:59;11.53;;;7.43;;
8230;SDS011;4156;50.908;6.974;2023-03-01T07:00:25;10.40;;;6.80;;
8230;SDS011;4156;50.908;6.974;2023-03-01T07:02:52;11.20;;;7.13;;
8230;SDS011;4156;50.908;6.974;2023-03-01T07:05:18;9.93;;;6.50;;
8230;SDS011;4156;50.908;6.974;2023-03-01T07:07:44;10.07;;;6.97;;
8230;SDS011;4156;50.908;6.974;2023-03-01T07:10:10;9.13;;;6.63;;
8230;SDS011;4156;50.908;6.974;2023-03-01T07:12:36;10.70;;;6.87;;
8230;SDS011;4156;50.908;6.974;2023-03-01T07:15:02;9.73;;;6.77;;
8230;SDS011;4156;50.908;6.974;2023-03-01T07:17:28;11.13;;;7.10;;
8230;SDS011;4156;50.908;6.974;2023-03-01T07:19:54;9.40;;;6.70;;
8230;SDS011;4156;50.908;6.974;2023-03-01T07:22:19;14.30;;;7.30;;
8230;SDS011;4156;50.908;6.974;2023-03-01T07:24:45;10.20;;;7.53;;
8230;SDS011;4156;50.908;6.974;2023-03-01T07:27:11;10.47;;;7.17;;
8230;SDS011;4156;50.908;6.974;2023-03-01T07:29:37;9.33;;;6.97;;
8230;SDS011;4156;50.908;6.974;2023-03-01T07:32:03;10.17;;;6.93;;
8230;SDS011;4156;50.908;6.974;2023-03-01T07:34:29;12.23;;;7.50;;
8230;SDS011;4156;50.908;6.974;2023-03-01T07:36:55;14.03;;;8.50;;
8230;SDS011;4156;50.908;6.974;2023-03-01T07:39:20;10.97;;;7.93;;
8230;SDS011;4156;50.908;6.974;2023-03-01T07:41:48;11.13;;;7.17;;
8230;SDS011;4156;50.908;6.974;2023-03-01T07:44:13;12.67;;;7.20;;
8230;SDS011;4156;50.908;6.974;2023-03-01T07:46:40;11.47;;;7.93;;
8230;SDS011;4156;50.908;6.974;2023-03-01T07:49:06;14.03;;;7.63;;
8230;SDS011;4156;50.908;6.974;2023-03-01T07:51:31;13.13;;;7.67;;
8230;SDS011;4156;50.908;6.974;2023-03-01T07:53:57;12.00;;;7.47;;
8230;SDS011;4156;50.908;6.974;2023-03-01T07:56:22;10.20;;;7.33;;
8230;SDS011;4156;50.908;6.974;2023-03-01T07:58:48;11.30;;;7.40;;
8230;SDS011;4156;50.908;6.974;2023-03-01T08:01:14;25.13;;;9.73;;
8230;SDS011;4156;50.908;6.974;2023-03-01T08:03:42;10.73;;;7.50;;
8230;SDS011;4156;50.908;6.974;2023-03-01T08:06:08;14.27;;;8.37;;
8230;SDS011;4156;50.908;6.974;2023-03-01T08:08:36;13.33;;;7.63;;
8230;SDS011;4156;50.908;6.974;2023-03-01T08:11:02;10.93;;;7.93;;
8230;SDS011;4156;50.908;6.974;2023-03-01T08:13:30;9.77;;;6.97;;
8230;SDS011;4156;50.908;6.974;2023-03-01T08:16:03;12.33;;;7.30;;
8230;SDS011;4156;50.908;6.974;2023-03-01T08:18:29;11.40;;;7.50;;
8230;SDS011;4156;50.908;6.974;2023-03-01T08:20:55;10.00;;;7.50;;
8230;SDS011;4156;50.908;6.974;2023-03-01T08:23:25;10.23;;;7.30;;
8230;SDS011;4156;50.908;6.974;2023-03-01T08:25:51;14.80;;;7.87;;
8230;SDS011;4156;50.908;6.974;2023-03-01T08:28:17;10.80;;;8.27;;
8230;SDS011;4156;50.908;6.974;2023-03-01T08:30:43;9.73;;;7.43;;
8230;SDS011;4156;50.908;6.974;2023-03-01T08:33:09;13.83;;;7.40;;
8230;SDS011;4156;50.908;6.974;2023-03-01T08:35:34;11.57;;;6.80;;
8230;SDS011;4156;50.908;6.974;2023-03-01T08:37:59;11.63;;;8.53;;
8230;SDS011;4156;50.908;6.974;2023-03-01T08:40:25;8.93;;;6.50;;
8230;SDS011;4156;50.908;6.974;2023-03-01T08:42:50;14.43;;;7.53;;
8230;SDS011;4156;50.908;6.974;2023-03-01T08:45:16;10.13;;;6.67;;
8230;SDS011;4156;50.908;6.974;2023-03-01T08:47:43;13.07;;;8.27;;
8230;SDS011;4156;50.908;6.974;2023-03-01T08:50:10;13.17;;;8.00;;
8230;SDS011;4156;50.908;6.974;2023-03-01T08:52:35;12.50;;;7.93;;
8230;SDS011;4156;50.908;6.974;2023-03-01T08:55:01;10.50;;;7.73;;
8230;SDS011;4156;50.908;6.974;2023-03-01T08:57:26;14.53;;;8.27;;
8230;SDS011;4156;50.908;6.974;2023-03-01T08:59:52;9.03;;;6.90;;
8230;SDS011;4156;50.908;6.974;2023-03-01T09:02:17;14.00;;;7.83;;
8230;SDS011;4156;50.908;6.974;2023-03-01T09:04:43;11.57;;;8.13;;
8230;SDS011;4156;50.908;6.974;2023-03-01T09:07:09;11.20;;;7.37;;
8230;SDS011;4156;50.908;6.974;2023-03-01T09:09:35;10.07;;;7.27;;
8230;SDS011;4156;50.908;6.974;2023-03-01T09:12:01;11.80;;;7.33;;
8230;SDS011;4156;50.908;6.974;2023-03-01T09:14:28;9.97;;;6.87;;
8230;SDS011;4156;50.908;6.974;2023-03-01T09:16:53;9.10;;;6.47;;
8230;SDS011;4156;50.908;6.974;2023-03-01T09:19:19;9.70;;;6.93;;
8230;SDS011;4156;50.908;6.974;2023-03-01T09:21:44;10.63;;;7.63;;
8230;SDS011;4156;50.908;6.974;2023-03-01T09:24:17;8.97;;;6.03;;
8230;SDS011;4156;50.908;6.974;2023-03-01T09:26:44;9.80;;;6.80;;
8230;SDS011;4156;50.908;6.974;2023-03-01T09:29:13;9.20;;;6.80;;
8230;SDS011;4156;50.908;6.974;2023-03-01T09:31:40;7.87;;;6.93;;
8230;SDS011;4156;50.908;6.974;2023-03-01T09:34:06;11.47;;;7.00;;
8230;SDS011;4156;50.908;6.974;2023-03-01T09:36:32;9.57;;;7.40;;
8230;SDS011;4156;50.908;6.974;2023-03-01T09:38:58;9.93;;;6.27;;
8230;SDS011;4156;50.908;6.974;2023-03-01T09:47:17;11.00;;;6.47;;
8230;SDS011;4156;50.908;6.974;2023-03-01T09:49:45;13.50;;;7.30;;
8230;SDS011;4156;50.908;6.974;2023-03-01T09:52:40;10.33;;;6.90;;
8230;SDS011;4156;50.908;6.974;2023-03-01T09:55:43;9.07;;;6.40;;
8230;SDS011;4156;50.908;6.974;2023-03-01T10:00:47;8.97;;;6.83;;
8230;SDS011;4156;50.908;6.974;2023-03-01T10:11:01;9.47;;;6.33;;
8230;SDS011;4156;50.908;6.974;2023-03-01T10:16:38;9.20;;;6.93;;
8230;SDS011;4156;50.908;6.974;2023-03-01T10:19:22;11.23;;;7.50;;
8230;SDS011;4156;50.908;6.974;2023-03-01T10:22:21;9.73;;;6.87;;
8230;SDS011;4156;50.908;6.974;2023-03-01T10:24:53;12.03;;;7.47;;
8230;SDS011;4156;50.908;6.974;2023-03-01T10:27:29;12.47;;;6.37;;
8230;SDS011;4156;50.908;6.974;2023-03-01T10:30:09;10.03;;;6.73;;
8230;SDS011;4156;50.908;6.974;2023-03-01T10:32:46;13.77;;;6.63;;
8230;SDS011;4156;50.908;6.974;2023-03-01T10:35:20;11.27;;;6.80;;
8230;SDS011;4156;50.908;6.974;2023-03-01T10:38:08;10.63;;;6.80;;
8230;SDS011;4156;50.908;6.974;2023-03-01T10:40:36;10.37;;;7.10;;
8230;SDS011;4156;50.908;6.974;2023-03-01T10:43:14;9.40;;;6.70;;
8230;SDS011;4156;50.908;6.974;2023-03-01T10:45:40;8.90;;;6.70;;
8230;SDS011;4156;50.908;6.974;2023-03-01T10:51:14;11.90;;;6.20;;
8230;SDS011;4156;50.908;6.974;2023-03-01T10:53:42;9.40;;;6.77;;
8230;SDS011;4156;50.908;6.974;2023-03-01T10:56:14;10.47;;;6.53;;
8230;SDS011;4156;50.908;6.974;2023-03-01T10:58:56;12.83;;;6.47;;
8230;SDS011;4156;50.908;6.974;2023-03-01T11:01:28;10.57;;;7.13;;
8230;SDS011;4156;50.908;6.974;2023-03-01T11:06:35;11.67;;;6.87;;
8230;SDS011;4156;50.908;6.974;2023-03-01T11:09:23;12.10;;;7.27;;
8230;SDS011;4156;50.908;6.974;2023-03-01T11:11:56;9.73;;;6.83;;
8230;SDS011;4156;50.908;6.974;2023-03-01T11:14:25;8.37;;;5.67;;
8230;SDS011;4156;50.908;6.974;2023-03-01T11:19:25;10.13;;;6.87;;
8230;SDS011;4156;50.908;6.974;2023-03-01T11:24:45;7.73;;;5.93;;
8230;SDS011;4156;50.908;6.974;2023-03-01T11:27:16;9.90;;;6.10;;
8230;SDS011;4156;50.908;6.974;2023-03-01T11:29:52;9.40;;;6.00;;
8230;SDS011;4156;50.908;6.974;2023-03-01T11:32:23;8.60;;;5.67;;
8230;SDS011;4156;50.908;6.974;2023-03-01T11:35:35;7.50;;;5.73;;
8230;SDS011;4156;50.908;6.974;2023-03-01T11:37:48;8.13;;;6.07;;
8230;SDS011;4156;50.908;6.974;2023-03-01T11:40:33;10.07;;;6.13;;
8230;SDS011;4156;50.908;6.974;2023-03-01T11:45:47;7.40;;;6.30;;
8230;SDS011;4156;50.908;6.974;2023-03-01T12:02:48;7.73;;;5.70;;
8230;SDS011;4156;50.908;6.974;2023-03-01T12:08:25;11.23;;;6.40;;
8230;SDS011;4156;50.908;6.974;2023-03-01T12:11:23;9.37;;;6.63;;
8230;SDS011;4156;50.908;6.974;2023-03-01T12:17:15;7.67;;;5.53;;
8230;SDS011;4156;50.908;6.974;2023-03-01T12:22:17;9.70;;;6.03;;
8230;SDS011;4156;50.908;6.974;2023-03-01T12:38:56;8.87;;;5.73;;
8230;SDS011;4156;50.908;6.974;2023-03-01T12:49:13;8.07;;;6.07;;
8230;SDS011;4156;50.908;6.974;2023-03-01T12:51:44;8.73;;;5.60;;
8230;SDS011;4156;50.908;6.974;2023-03-01T12:54:31;9.27;;;5.93;;
8230;SDS011;4156;50.908;6.974;2023-03-01T12:57:08;7.63;;;5.83;;
8230;SDS011;4156;50.908;6.974;2023-03-01T12:59:51;9.13;;;5.77;;
8230;SDS011;4156;50.908;6.974;2023-03-01T13:02:53;8.93;;;6.03;;
8230;SDS011;4156;50.908;6.974;2023-03-01T13:06:25;8.63;;;5.80;;
8230;SDS011;4156;50.908;6.974;2023-03-01T13:08:46;9.23;;;5.90;;
8230;SDS011;4156;50.908;6.974;2023-03-01T13:11:20;9.10;;;5.50;;
8230;SDS011;4156;50.908;6.974;2023-03-01T13:13:47;7.93;;;5.03;;
8230;SDS011;4156;50.908;6.974;2023-03-01T13:16:56;7.10;;;5.27;;
8230;SDS011;4156;50.908;6.974;2023-03-01T13:19:06;7.90;;;6.10;;
8230;SDS011;4156;50.908;6.974;2023-03-01T13:21:38;7.87;;;5.20;;
8230;SDS011;4156;50.908;6.974;2023-03-01T13:24:04;7.97;;;5.27;;
8230;SDS011;4156;50.908;6.974;2023-03-01T13:32:24;6.90;;;5.17;;
8230;SDS011;4156;50.908;6.974;2023-03-01T13:37:43;6.50;;;4.90;;
8230;SDS011;4156;50.908;6.974;2023-03-01T13:42:44;9.77;;;5.63;;
8230;SDS011;4156;50.908;6.974;2023-03-01T13:45:21;9.13;;;5.67;;
8230;SDS011;4156;50.908;6.974;2023-03-01T13:47:55;7.07;;;5.20;;
8230;SDS011;4156;50.908;6.974;2023-03-01T13:50:28;8.57;;;5.30;;
8230;SDS011;4156;50.908;6.974;2023-03-01T13:52:59;7.23;;;5.13;;
8230;SDS011;4156;50.908;6.974;2023-03-01T13:58:53;7.27;;;5.70;;
8230;SDS011;4156;50.908;6.974;2023-03-01T14:01:26;6.60;;;4.77;;
8230;SDS011;4156;50.908;6.974;2023-03-01T14:03:54;5.97;;;4.60;;
8230;SDS011;4156;50.908;6.974;2023-03-01T14:06:24;7.73;;;4.87;;
8230;SDS011;4156;50.908;6.974;2023-03-01T14:09:05;6.27;;;5.27;;
8230;SDS011;4156;50.908;6.974;2023-03-01T14:20:08;6.83;;;5.17;;
8230;SDS011;4156;50.908;6.974;2023-03-01T14:22:49;7.00;;;5.13;;
8230;SDS011;4156;50.908;6.974;2023-03-01T14:27:51;7.57;;;4.70;;
8230;SDS011;4156;50.908;6.974;2023-03-01T14:30:26;6.73;;;5.03;;
8230;SDS011;4156;50.908;6.974;2023-03-01T14:32:57;8.10;;;4.97;;
8230;SDS011;4156;50.908;6.974;2023-03-01T14:35:29;6.20;;;4.40;;
8230;SDS011;4156;50.908;6.974;2023-03-01T14:37:59;6.80;;;4.43;;
8230;SDS011;4156;50.908;6.974;2023-03-01T14:40:28;7.90;;;5.43;;
8230;SDS011;4156;50.908;6.974;2023-03-01T14:42:57;7.63;;;4.60;;
8230;SDS011;4156;50.908;6.974;2023-03-01T14:45:25;7.47;;;5.60;;
8230;SDS011;4156;50.908;6.974;2023-03-01T14:47:53;7.20;;;4.60;;
8230;SDS011;4156;50.908;6.974;2023-03-01T14:50:30;6.20;;;4.67;;
8230;SDS011;4156;50.908;6.974;2023-03-01T14:53:01;6.67;;;4.73;;
8230;SDS011;4156;50.908;6.974;2023-03-01T14:55:31;6.50;;;4.80;;
8230;SDS011;4156;50.908;6.974;2023-03-01T14:58:09;6.87;;;5.23;;
8230;SDS011;4156;50.908;6.974;2023-03-01T15:00:37;7.83;;;5.40;;
8230;SDS011;4156;50.908;6.974;2023-03-01T15:03:13;6.63;;;5.03;;
8230;SDS011;4156;50.908;6.974;2023-03-01T15:05:44;8.07;;;4.90;;
8230;SDS011;4156;50.908;6.974;2023-03-01T15:08:27;6.77;;;4.50;;
8230;SDS011;4156;50.908;6.974;2023-03-01T15:13:29;6.90;;;5.13;;
8230;SDS011;4156;50.908;6.974;2023-03-01T15:16:12;6.73;;;5.47;;
8230;SDS011;4156;50.908;6.974;2023-03-01T15:18:48;8.90;;;5.40;;
8230;SDS011;4156;50.908;6.974;2023-03-01T15:21:17;6.73;;;5.30;;
8230;SDS011;4156;50.908;6.974;2023-03-01T15:23:47;6.23;;;4.83;;
8230;SDS011;4156;50.908;6.974;2023-03-01T15:26:21;14.27;;;6.90;;
8230;SDS011;4156;50.908;6.974;2023-03-01T15:28:50;6.50;;;5.13;;
8230;SDS011;4156;50.908;6.974;2023-03-01T15:33:47;8.03;;;5.17;;
8230;SDS011;4156;50.908;6.974;2023-03-01T15:36:35;8.43;;;5.83;;
8230;SDS011;4156;50.908;6.974;2023-03-01T15:45:11;8.63;;;4.90;;
8230;SDS011;4156;50.908;6.974;2023-03-01T15:47:49;7.87;;;5.13;;
8230;SDS011;4156;50.908;6.974;2023-03-01T15:50:19;7.67;;;6.10;;
8230;SDS011;4156;50.908;6.974;2023-03-01T15:52:47;7.13;;;5.03;;
8230;SDS011;4156;50.908;6.974;2023-03-01T15:55:18;7.13;;;4.80;;
8230;SDS011;4156;50.908;6.974;2023-03-01T15:57:45;7.23;;;5.57;;
8230;SDS011;4156;50.908;6.974;2023-03-01T16:00:12;8.37;;;5.60;;
8230;SDS011;4156;50.908;6.974;2023-03-01T16:02:39;7.70;;;4.97;;
8230;SDS011;4156;50.908;6.974;2023-03-01T16:05:08;7.80;;;5.40;;
8230;SDS011;4156;50.908;6.974;2023-03-01T16:07:43;8.77;;;4.90;;
8230;SDS011;4156;50.908;6.974;2023-03-01T16:10:09;7.50;;;5.53;;
8230;SDS011;4156;50.908;6.974;2023-03-01T16:12:35;7.90;;;5.33;;
8230;SDS011;4156;50.908;6.974;2023-03-01T16:15:00;8.03;;;5.70;;
8230;SDS011;4156;50.908;6.974;2023-03-01T16:17:26;8.13;;;4.40;;
8230;SDS011;4156;50.908;6.974;2023-03-01T16:19:51;6.10;;;4.83;;
8230;SDS011;4156;50.908;6.974;2023-03-01T16:22:17;7.07;;;5.07;;
8230;SDS011;4156;50.908;6.974;2023-03-01T16:24:42;8.77;;;5.03;;
8230;SDS011;4156;50.908;6.974;2023-03-01T16:27:08;8.60;;;4.80;;
8230;SDS011;4156;50.908;6.974;2023-03-01T16:29:33;6.10;;;4.20;;
8230;SDS011;4156;50.908;6.974;2023-03-01T16:32:00;7.50;;;4.80;;
8230;SDS011;4156;50.908;6.974;2023-03-01T16:34:27;8.70;;;5.43;;
8230;SDS011;4156;50.908;6.974;2023-03-01T16:36:52;5.63;;;4.20;;
8230;SDS011;4156;50.908;6.974;2023-03-01T16:39:18;8.50;;;5.00;;
8230;SDS011;4156;50.908;6.974;2023-03-01T16:41:43;6.60;;;4.33;;
8230;SDS011;4156;50.908;6.974;2023-03-01T16:44:09;6.80;;;4.90;;
8230;SDS011;4156;50.908;6.974;2023-03-01T16:46:34;8.30;;;4.37;;
8230;SDS011;4156;50.908;6.974;2023-03-01T16:49:00;6.77;;;4.97;;
8230;SDS011;4156;50.908;6.974;2023-03-01T16:51:25;6.50;;;4.77;;
8230;SDS011;4156;50.908;6.974;2023-03-01T16:53:51;6.13;;;4.43;;
8230;SDS011;4156;50.908;6.974;2023-03-01T16:56:17;6.90;;;4.53;;
8230;SDS011;4156;50.908;6.974;2023-03-01T16:58:43;6.87;;;4.90;;
8230;SDS011;4156;50.908;6.974;2023-03-01T17:03:36;7.17;;;4.70;;
8230;SDS011;4156;50.908;6.974;2023-03-01T17:06:07;6.00;;;4.23;;
8230;SDS011;4156;50.908;6.974;2023-03-01T17:08:37;7.90;;;5.03;;
8230;SDS011;4156;50.908;6.974;2023-03-01T17:11:08;9.57;;;4.77;;
8230;SDS011;4156;50.908;6.974;2023-03-01T17:13:36;7.43;;;5.00;;
8230;SDS011;4156;50.908;6.974;2023-03-01T17:16:04;10.77;;;5.43;;
8230;SDS011;4156;50.908;6.974;2023-03-01T17:18:31;9.40;;;5.10;;
8230;SDS011;4156;50.908;6.974;2023-03-01T17:20:57;7.60;;;4.63;;
8230;SDS011;4156;50.908;6.974;2023-03-01T17:23:23;7.43;;;5.03;;
8230;SDS011;4156;50.908;6.974;2023-03-01T17:25:49;7.33;;;5.20;;
8230;SDS011;4156;50.908;6.974;2023-03-01T17:28:14;7.27;;;4.87;;
8230;SDS011;4156;50.908;6.974;2023-03-01T17:30:40;6.73;;;4.57;;
8230;SDS011;4156;50.908;6.974;2023-03-01T17:33:07;9.23;;;5.30;;
8230;SDS011;4156;50.908;6.974;2023-03-01T17:35:33;9.23;;;5.37;;
8230;SDS011;4156;50.908;6.974;2023-03-01T17:38:01;7.20;;;4.90;;
8230;SDS011;4156;50.908;6.974;2023-03-01T17:40:26;7.23;;;4.90;;